createdAt,value
2019-06-15T00:00:18.316Z,-78
2019-06-15T00:02:47.823Z,-78
2019-06-15T00:05:17.298Z,-79
2019-06-15T00:07:46.779Z,-78
2019-06-15T00:10:16.497Z,-78
2019-06-15T00:12:45.979Z,-78
2019-06-15T00:15:15.873Z,-78
2019-06-15T00:17:45.435Z,-77
2019-06-15T00:20:16.028Z,-78
2019-06-15T00:22:45.573Z,-79
2019-06-15T00:25:15.467Z,-79
2019-06-15T00:27:44.940Z,-78
2019-06-15T00:30:15.236Z,-78
2019-06-15T00:32:44.710Z,-78
2019-06-15T00:35:14.331Z,-79
2019-06-15T00:37:43.813Z,-78
2019-06-15T00:40:13.760Z,-78
2019-06-15T00:42:43.288Z,-79
2019-06-15T00:45:12.995Z,-79
2019-06-15T00:47:42.520Z,-78
2019-06-15T00:50:12.832Z,-78
2019-06-15T00:52:42.350Z,-78
2019-06-15T00:55:12.061Z,-78
2019-06-15T00:57:41.545Z,-79
2019-06-15T01:00:11.544Z,-78
2019-06-15T01:02:41.185Z,-79
2019-06-15T01:05:12.422Z,-79
2019-06-15T01:07:41.900Z,-79
2019-06-15T01:10:12.666Z,-78
2019-06-15T01:12:42.212Z,-78
2019-06-15T01:15:12.092Z,-79
2019-06-15T01:17:41.701Z,-78
2019-06-15T01:20:13.297Z,-79
2019-06-15T01:22:42.842Z,-78
2019-06-15T01:25:13.080Z,-79
2019-06-15T01:27:42.570Z,-78
2019-06-15T01:30:12.880Z,-76
2019-06-15T01:33:01.722Z,-76
2019-06-15T01:35:31.201Z,-76
2019-06-15T01:38:00.657Z,-76
2019-06-15T01:40:30.212Z,-76
2019-06-15T01:42:59.668Z,-76
2019-06-15T01:45:29.230Z,-76
2019-06-15T01:47:58.758Z,-76
2019-06-15T01:50:28.282Z,-76
2019-06-15T01:52:57.763Z,-76
2019-06-15T01:55:27.210Z,-76
2019-06-15T01:57:56.684Z,-76
2019-06-15T02:00:45.774Z,-76
2019-06-15T02:03:15.264Z,-76
2019-06-15T02:05:44.792Z,-76
2019-06-15T02:08:14.275Z,-76
2019-06-15T02:10:43.803Z,-76
2019-06-15T02:13:13.264Z,-76
2019-06-15T02:15:42.772Z,-76
2019-06-15T02:18:13.449Z,-76
2019-06-15T02:20:42.889Z,-76
2019-06-15T02:23:12.341Z,-76
2019-06-15T02:25:41.865Z,-76
2019-06-15T02:28:13.790Z,-76
2019-06-15T02:30:42.551Z,-76
2019-06-15T02:33:12.083Z,-76
2019-06-15T02:35:42.799Z,-76
2019-06-15T02:38:12.303Z,-76
2019-06-15T02:40:41.956Z,-76
2019-06-15T02:43:11.404Z,-76
2019-06-15T02:45:40.947Z,-76
2019-06-15T02:48:29.793Z,-76
2019-06-15T02:50:59.312Z,-75
2019-06-15T02:53:28.781Z,-75
2019-06-15T02:55:58.260Z,-75
2019-06-15T02:58:27.721Z,-74
2019-06-15T03:01:08.611Z,-75
2019-06-15T03:03:38.154Z,-74
2019-06-15T03:06:07.859Z,-75
2019-06-15T03:08:38.046Z,-75
2019-06-15T03:11:07.577Z,-75
2019-06-15T03:13:37.481Z,-74
2019-06-15T03:16:07.500Z,-74
2019-06-15T03:18:36.957Z,-74
2019-06-15T03:21:06.503Z,-74
2019-06-15T03:23:35.966Z,-74
2019-06-15T03:26:06.334Z,-74
2019-06-15T03:28:35.901Z,-75
2019-06-15T03:31:07.251Z,-75
2019-06-15T03:33:36.789Z,-76
2019-06-15T03:36:06.315Z,-76
2019-06-15T03:38:35.793Z,-75
2019-06-15T03:41:05.424Z,-75
2019-06-15T03:43:34.924Z,-76
2019-06-15T03:46:04.372Z,-76
2019-06-15T03:48:33.855Z,-75
2019-06-15T03:51:03.314Z,-75
2019-06-15T03:53:32.775Z,-76
2019-06-15T03:56:02.328Z,-75
2019-06-15T03:58:31.822Z,-75
2019-06-15T04:01:23.765Z,-75
2019-06-15T04:03:53.219Z,-75
2019-06-15T04:06:42.071Z,-75
2019-06-15T04:09:11.534Z,-75
2019-06-15T04:11:41.018Z,-75
2019-06-15T04:14:10.508Z,-74
2019-06-15T04:16:40.068Z,-75
2019-06-15T04:19:09.560Z,-75
2019-06-15T04:21:38.995Z,-75
2019-06-15T04:24:08.560Z,-75
2019-06-15T04:26:38.011Z,-74
2019-06-15T04:29:07.559Z,-75
2019-06-15T04:31:39.874Z,-75
2019-06-15T04:34:08.228Z,-74
2019-06-15T04:36:37.707Z,-74
2019-06-15T04:39:08.446Z,-74
2019-06-15T04:41:37.908Z,-74
2019-06-15T04:44:07.383Z,-74
2019-06-15T04:46:36.864Z,-75
2019-06-15T04:49:06.412Z,-74
2019-06-15T04:51:35.880Z,-74
2019-06-15T04:54:05.496Z,-74
2019-06-15T04:56:35.272Z,-74
2019-06-15T04:59:04.799Z,-75
2019-06-15T05:01:34.294Z,-75
2019-06-15T05:04:03.777Z,-74
2019-06-15T05:06:38.907Z,-74
2019-06-15T05:09:08.456Z,-75
2019-06-15T05:11:37.953Z,-75
2019-06-15T05:14:07.447Z,-74
2019-06-15T05:16:36.937Z,-75
2019-06-15T05:19:06.426Z,-74
2019-06-15T05:21:35.879Z,-75
2019-06-15T05:24:08.569Z,-75
2019-06-15T05:26:36.683Z,-75
2019-06-15T05:29:06.244Z,-75
2019-06-15T05:31:35.719Z,-75
2019-06-15T05:34:05.345Z,-75
2019-06-15T05:36:34.815Z,-75
2019-06-15T05:39:05.810Z,-76
2019-06-15T05:41:36.102Z,-75
2019-06-15T05:44:06.113Z,-75
2019-06-15T05:46:35.607Z,-75
2019-06-15T05:49:05.207Z,-75
2019-06-15T05:51:34.689Z,-75
2019-06-15T05:54:04.316Z,-75
2019-06-15T05:56:33.796Z,-75
2019-06-15T05:59:03.284Z,-75
2019-06-15T06:01:32.743Z,-75
2019-06-15T06:04:02.233Z,-75
2019-06-15T06:06:51.090Z,-76
2019-06-15T06:09:20.548Z,-74
2019-06-15T06:11:50.018Z,-74
2019-06-15T06:14:19.570Z,-74
2019-06-15T06:16:49.036Z,-73
2019-06-15T06:19:18.516Z,-73
2019-06-15T06:21:47.998Z,-75
2019-06-15T06:24:17.564Z,-74
2019-06-15T06:26:47.051Z,-73
2019-06-15T06:29:16.511Z,-74
2019-06-15T06:31:45.989Z,-75
2019-06-15T06:34:15.469Z,-74
2019-06-15T06:36:45.004Z,-75
2019-06-15T06:39:14.495Z,-74
2019-06-15T06:41:43.963Z,-74
2019-06-15T06:44:13.573Z,-74
2019-06-15T06:46:43.083Z,-74
2019-06-15T06:49:12.583Z,-74
2019-06-15T06:51:42.137Z,-73
2019-06-15T06:54:11.669Z,-73
2019-06-15T06:56:41.163Z,-73
2019-06-15T06:59:10.626Z,-74
2019-06-15T07:01:40.174Z,-74
2019-06-15T07:04:09.651Z,-74
2019-06-15T07:06:39.689Z,-73
2019-06-15T07:09:09.241Z,-73
2019-06-15T07:11:38.779Z,-73
2019-06-15T07:14:08.333Z,-73
2019-06-15T07:16:37.818Z,-73
2019-06-15T07:19:07.362Z,-73
2019-06-15T07:21:36.923Z,-73
2019-06-15T07:24:06.426Z,-73
2019-06-15T07:26:35.896Z,-74
2019-06-15T07:29:05.541Z,-74
2019-06-15T07:31:35.036Z,-75
2019-06-15T07:34:04.687Z,-75
2019-06-15T07:36:34.152Z,-73
2019-06-15T07:39:04.289Z,-73
2019-06-15T07:41:33.791Z,-73
2019-06-15T07:44:03.379Z,-73
2019-06-15T07:46:32.913Z,-73
2019-06-15T07:49:04.971Z,-74
2019-06-15T07:51:33.699Z,-74
2019-06-15T07:54:03.187Z,-76
2019-06-15T07:56:32.689Z,-74
2019-06-15T07:59:02.172Z,-74
2019-06-15T08:01:31.657Z,-74
2019-06-15T08:04:01.131Z,-75
2019-06-15T08:06:30.703Z,-75
2019-06-15T08:09:00.277Z,-74
2019-06-15T08:11:29.762Z,-75
2019-06-15T08:13:59.327Z,-75
2019-06-15T08:16:28.815Z,-74
2019-06-15T08:18:58.316Z,-75
2019-06-15T08:21:27.763Z,-75
2019-06-15T08:23:57.284Z,-75
2019-06-15T08:26:26.793Z,-75
2019-06-15T08:28:56.264Z,-76
2019-06-15T08:31:25.837Z,-75
2019-06-15T08:33:55.340Z,-75
2019-06-15T08:36:24.836Z,-75
2019-06-15T08:38:54.326Z,-75
2019-06-15T08:41:43.132Z,-75
2019-06-15T08:44:12.696Z,-75
2019-06-15T08:46:42.162Z,-75
2019-06-15T08:49:11.653Z,-76
2019-06-15T08:51:41.400Z,-76
2019-06-15T08:54:10.875Z,-75
2019-06-15T08:56:40.430Z,-74
2019-06-15T08:59:09.903Z,-75
2019-06-15T09:01:39.530Z,-74
2019-06-15T09:04:09.043Z,-75
2019-06-15T09:06:38.481Z,-77
2019-06-15T09:09:08.045Z,-74
2019-06-15T09:11:37.601Z,-75
2019-06-15T09:14:07.173Z,-75
2019-06-15T09:16:36.649Z,-76
2019-06-15T09:19:06.181Z,-75
2019-06-15T09:21:35.686Z,-75
2019-06-15T09:24:05.292Z,-75
2019-06-15T09:26:34.771Z,-75
2019-06-15T09:29:11.224Z,-75
2019-06-15T09:31:35.564Z,-75
2019-06-15T09:34:18.083Z,-75
2019-06-15T09:36:36.310Z,-75
2019-06-15T09:39:08.109Z,-74
2019-06-15T09:41:38.629Z,-75
2019-06-15T09:44:08.134Z,-75
2019-06-15T09:46:37.591Z,-75
2019-06-15T09:49:07.099Z,-75
2019-06-15T09:51:36.642Z,-75
2019-06-15T09:54:06.212Z,-75
2019-06-15T09:56:35.688Z,-75
2019-06-15T09:59:06.157Z,-75
2019-06-15T10:01:35.733Z,-76
2019-06-15T10:04:05.327Z,-75
2019-06-15T10:06:34.942Z,-74
2019-06-15T10:09:06.376Z,-75
2019-06-15T10:11:35.959Z,-75
2019-06-15T10:14:05.571Z,-75
2019-06-15T10:16:54.457Z,-75
2019-06-15T10:19:24.048Z,-75
2019-06-15T10:21:53.490Z,-75
2019-06-15T10:24:22.960Z,-75
2019-06-15T10:26:52.469Z,-75
2019-06-15T10:29:21.943Z,-75
2019-06-15T10:31:51.427Z,-75
2019-06-15T10:34:20.907Z,-75
2019-06-15T10:36:50.481Z,-75
2019-06-15T10:39:19.981Z,-75
2019-06-15T10:41:49.550Z,-76
2019-06-15T10:44:19.028Z,-75
2019-06-15T10:46:48.558Z,-75
2019-06-15T10:49:18.070Z,-75
2019-06-15T10:51:47.544Z,-76
2019-06-15T10:54:17.035Z,-75
2019-06-15T10:56:46.496Z,-74
2019-06-15T10:59:19.291Z,-75
2019-06-15T11:01:48.858Z,-75
2019-06-15T11:04:18.438Z,-75
2019-06-15T11:06:47.897Z,-75
2019-06-15T11:09:17.367Z,-75
2019-06-15T11:11:47.110Z,-75
2019-06-15T11:14:16.590Z,-75
2019-06-15T11:16:46.325Z,-75
2019-06-15T11:19:15.893Z,-76
2019-06-15T11:21:45.439Z,-74
2019-06-15T11:24:14.939Z,-75
2019-06-15T11:26:44.573Z,-75
2019-06-15T11:29:14.134Z,-75
2019-06-15T11:31:44.235Z,-75
2019-06-15T11:34:13.734Z,-76
2019-06-15T11:36:43.273Z,-76
2019-06-15T11:39:12.786Z,-76
2019-06-15T11:41:42.825Z,-76
2019-06-15T11:44:12.291Z,-78
2019-06-15T11:46:41.927Z,-76
2019-06-15T11:49:11.406Z,-77
2019-06-15T11:51:40.917Z,-76
2019-06-15T11:54:10.387Z,-75
2019-06-15T11:56:39.858Z,-75
2019-06-15T11:59:09.359Z,-76
2019-06-15T12:01:38.904Z,-77
2019-06-15T12:04:08.565Z,-77
2019-06-15T12:06:38.092Z,-76
2019-06-15T12:09:08.800Z,-76
2019-06-15T12:11:38.321Z,-75
2019-06-15T12:14:27.176Z,-75
2019-06-15T12:16:56.617Z,-74
2019-06-15T12:19:26.123Z,-75
2019-06-15T12:21:55.597Z,-76
2019-06-15T12:24:25.069Z,-75
2019-06-15T12:26:54.556Z,-74
2019-06-15T12:29:24.041Z,-75
2019-06-15T12:31:53.587Z,-76
2019-06-15T12:34:23.054Z,-74
2019-06-15T12:36:52.701Z,-74
2019-06-15T12:39:22.256Z,-74
2019-06-15T12:41:51.753Z,-75
2019-06-15T12:44:21.316Z,-74
2019-06-15T12:46:50.779Z,-75
2019-06-15T12:49:20.264Z,-75
2019-06-15T12:51:49.715Z,-75
2019-06-15T12:54:19.213Z,-75
2019-06-15T12:56:48.662Z,-74
2019-06-15T12:59:18.136Z,-76
2019-06-15T13:01:47.614Z,-76
2019-06-15T13:04:17.093Z,-75
2019-06-15T13:06:46.591Z,-74
2019-06-15T13:09:16.067Z,-75
2019-06-15T13:11:45.579Z,-75
2019-06-15T13:14:15.054Z,-75
2019-06-15T13:16:47.321Z,-74
2019-06-15T13:19:15.762Z,-76
2019-06-15T13:21:45.427Z,-75
2019-06-15T13:24:14.849Z,-76
2019-06-15T13:26:44.341Z,-74
2019-06-15T13:29:13.818Z,-75
2019-06-15T13:31:43.277Z,-76
2019-06-15T13:34:12.781Z,-75
2019-06-15T13:36:42.239Z,-74
2019-06-15T13:39:12.006Z,-75
2019-06-15T13:41:41.468Z,-75
2019-06-15T13:44:10.977Z,-74
2019-06-15T13:46:41.484Z,-75
2019-06-15T13:49:10.963Z,-75
2019-06-15T13:51:40.451Z,-75
2019-06-15T13:54:09.917Z,-74
2019-06-15T13:56:39.394Z,-75
2019-06-15T13:59:08.908Z,-75
2019-06-15T14:01:38.386Z,-75
2019-06-15T14:04:07.905Z,-75
2019-06-15T14:06:37.386Z,-74
2019-06-15T14:09:08.304Z,-75
2019-06-15T14:11:37.786Z,-75
2019-06-15T14:14:07.283Z,-75
2019-06-15T14:16:36.768Z,-75
2019-06-15T14:19:06.334Z,-75
2019-06-15T14:21:35.882Z,-75
2019-06-15T14:24:05.433Z,-75
2019-06-15T14:26:34.955Z,-74
2019-06-15T14:29:04.472Z,-76
2019-06-15T14:31:46.699Z,-76
2019-06-15T14:34:05.332Z,-75
2019-06-15T14:36:34.869Z,-75
2019-06-15T14:39:05.813Z,-76
2019-06-15T14:41:35.439Z,-75
2019-06-15T14:44:05.338Z,-75
2019-06-15T14:46:34.931Z,-75
2019-06-15T14:49:04.498Z,-74
2019-06-15T14:51:33.939Z,-74
2019-06-15T14:54:03.471Z,-75
2019-06-15T14:56:32.964Z,-75
2019-06-15T14:59:02.447Z,-77
2019-06-15T15:01:34.846Z,-77
2019-06-15T15:04:03.294Z,-75
2019-06-15T15:06:32.760Z,-75
2019-06-15T15:09:02.257Z,-76
2019-06-15T15:11:51.181Z,-76
2019-06-15T15:14:20.655Z,-78
2019-06-15T15:16:50.127Z,-78
2019-06-15T15:19:19.742Z,-73
2019-06-15T15:21:49.185Z,-77
2019-06-15T15:24:18.669Z,-78
2019-06-15T15:26:48.134Z,-78
2019-06-15T15:29:17.716Z,-74
2019-06-15T15:31:47.271Z,-76
2019-06-15T15:34:17.374Z,-77
2019-06-15T15:36:47.186Z,-77
2019-06-15T15:39:16.887Z,-77
2019-06-15T15:41:46.985Z,-76
2019-06-15T15:44:16.916Z,-76
2019-06-15T15:46:46.461Z,-77
2019-06-15T15:49:16.413Z,-74
2019-06-15T15:51:47.294Z,-77
2019-06-15T15:54:16.913Z,-76
2019-06-15T15:56:46.826Z,-76
2019-06-15T15:59:16.540Z,-76
2019-06-15T16:01:46.338Z,-75
2019-06-15T16:04:17.074Z,-77
2019-06-15T16:06:46.927Z,-77
2019-06-15T16:09:17.018Z,-75
2019-06-15T16:11:46.841Z,-76
2019-06-15T16:14:16.611Z,-77
2019-06-15T16:16:46.823Z,-76
2019-06-15T16:19:17.239Z,-76
2019-06-15T16:21:47.264Z,-77
2019-06-15T16:24:16.918Z,-77
2019-06-15T16:26:46.854Z,-77
2019-06-15T16:29:17.029Z,-74
2019-06-15T16:31:46.499Z,-77
2019-06-15T16:34:16.275Z,-75
2019-06-15T16:36:47.031Z,-76
2019-06-15T16:39:16.905Z,-76
2019-06-15T16:41:47.133Z,-77
2019-06-15T16:44:17.437Z,-77
2019-06-15T16:46:47.049Z,-77
2019-06-15T16:49:20.494Z,-76
2019-06-15T16:51:47.776Z,-77
2019-06-15T16:54:17.229Z,-78
2019-06-15T16:56:46.825Z,-77
2019-06-15T16:59:16.340Z,-76
2019-06-15T17:01:45.836Z,-77
2019-06-15T17:04:16.578Z,-80
2019-06-15T17:06:46.191Z,-79
2019-06-15T17:09:16.835Z,-78
2019-06-15T17:11:47.139Z,-78
2019-06-15T17:14:17.261Z,-77
2019-06-15T17:16:46.832Z,-78
2019-06-15T17:19:16.600Z,-79
2019-06-15T17:21:46.695Z,-78
2019-06-15T17:24:17.180Z,-78
2019-06-15T17:26:46.974Z,-79
2019-06-15T17:29:16.861Z,-78
2019-06-15T17:31:46.845Z,-78
2019-06-15T17:34:16.753Z,-78
2019-06-15T17:36:47.221Z,-77
2019-06-15T17:39:17.250Z,-78
2019-06-15T17:41:47.384Z,-79
2019-06-15T17:44:17.062Z,-78
2019-06-15T17:46:46.697Z,-79
2019-06-15T17:49:17.899Z,-76
2019-06-15T17:51:47.465Z,-79
2019-06-15T17:54:17.177Z,-80
2019-06-15T17:56:46.793Z,-78
2019-06-15T17:59:16.475Z,-78
2019-06-15T18:01:46.982Z,-79
2019-06-15T18:04:16.823Z,-78
2019-06-15T18:06:46.843Z,-79
2019-06-15T18:09:17.144Z,-79
2019-06-15T18:11:46.884Z,-78
2019-06-15T18:14:17.704Z,-79
2019-06-15T18:16:47.386Z,-79
2019-06-15T18:19:17.250Z,-79
2019-06-15T18:21:46.993Z,-78
2019-06-15T18:24:37.261Z,-77
2019-06-15T18:27:09.468Z,-78
2019-06-15T18:29:38.191Z,-78
2019-06-15T18:32:07.850Z,-77
2019-06-15T18:34:37.348Z,-77
2019-06-15T18:37:07.703Z,-78
2019-06-15T18:39:37.337Z,-78
2019-06-15T18:42:07.714Z,-77
2019-06-15T18:44:37.395Z,-77
2019-06-15T18:47:07.224Z,-78
2019-06-15T18:49:36.742Z,-77
2019-06-15T18:52:06.299Z,-77
2019-06-15T18:54:36.400Z,-75
2019-06-15T18:57:07.456Z,-77
2019-06-15T18:59:37.036Z,-76
2019-06-15T19:02:06.793Z,-77
2019-06-15T19:04:36.391Z,-77
2019-06-15T19:07:06.665Z,-76
2019-06-15T19:09:36.306Z,-77
2019-06-15T19:12:07.043Z,-76
2019-06-15T19:14:36.710Z,-74
2019-06-15T19:17:06.247Z,-74
2019-06-15T19:19:37.729Z,-76
2019-06-15T19:22:07.119Z,-76
2019-06-15T19:24:36.864Z,-75
2019-06-15T19:27:08.312Z,-74
2019-06-15T19:29:37.985Z,-76
2019-06-15T19:32:08.157Z,-75
2019-06-15T19:34:47.242Z,-75
2019-06-15T19:37:09.084Z,-75
2019-06-15T19:39:38.580Z,-75
2019-06-15T19:42:08.183Z,-74
2019-06-15T19:44:37.771Z,-76
2019-06-15T19:47:07.342Z,-76
2019-06-15T19:49:36.829Z,-76
2019-06-15T19:52:06.702Z,-74
2019-06-15T19:54:36.633Z,-76
2019-06-15T19:57:06.874Z,-76
2019-06-15T19:59:36.689Z,-78
2019-06-15T20:02:10.059Z,-76
2019-06-15T20:04:38.351Z,-73
2019-06-15T20:07:07.904Z,-76
2019-06-15T20:09:37.378Z,-75
2019-06-15T20:12:17.962Z,-75
2019-06-15T20:14:38.132Z,-75
2019-06-15T20:17:07.619Z,-73
2019-06-15T20:19:37.695Z,-76
2019-06-15T20:22:07.414Z,-74
2019-06-15T20:24:36.934Z,-75
2019-06-15T20:27:09.715Z,-75
2019-06-15T20:29:37.664Z,-75
2019-06-15T20:32:07.138Z,-76
2019-06-15T20:34:37.216Z,-75
2019-06-15T20:37:06.971Z,-75
2019-06-15T20:39:36.478Z,-76
2019-06-15T20:42:07.885Z,-76
2019-06-15T20:44:37.223Z,-75
2019-06-15T20:47:06.810Z,-76
2019-06-15T20:49:36.938Z,-76
2019-06-15T20:52:07.052Z,-76
2019-06-15T20:54:36.833Z,-76
2019-06-15T20:57:06.603Z,-76
2019-06-15T20:59:36.935Z,-76
2019-06-15T21:02:07.119Z,-77
2019-06-15T21:04:36.670Z,-77
2019-06-15T21:07:06.754Z,-76
2019-06-15T21:09:36.585Z,-77
2019-06-15T21:12:07.889Z,-77
2019-06-15T21:14:37.373Z,-77
2019-06-15T21:17:06.981Z,-77
2019-06-15T21:19:36.479Z,-77
2019-06-15T21:22:06.553Z,-76
2019-06-15T21:24:37.254Z,-77
2019-06-15T21:27:06.985Z,-77
2019-06-15T21:29:37.121Z,-77
2019-06-15T21:32:06.716Z,-77
2019-06-15T21:34:36.380Z,-77
2019-06-15T21:37:06.704Z,-77
2019-06-15T21:39:36.599Z,-76
2019-06-15T21:42:06.541Z,-78
2019-06-15T21:44:36.988Z,-77
2019-06-15T21:47:07.026Z,-78
2019-06-15T21:49:36.618Z,-77
2019-06-15T21:52:07.119Z,-77
2019-06-15T21:54:36.885Z,-77
2019-06-15T21:57:07.101Z,-77
2019-06-15T21:59:37.129Z,-77
2019-06-15T22:02:07.250Z,-76
2019-06-15T22:04:37.409Z,-77
2019-06-15T22:07:06.962Z,-78
2019-06-15T22:09:36.585Z,-78
2019-06-15T22:12:06.897Z,-78
2019-06-15T22:14:36.718Z,-77
2019-06-15T22:17:06.720Z,-79
2019-06-15T22:19:36.881Z,-78
2019-06-15T22:22:27.294Z,-78
2019-06-15T22:24:56.919Z,-78
2019-06-15T22:27:26.410Z,-78
2019-06-15T22:29:56.524Z,-78
2019-06-15T22:32:27.031Z,-78
2019-06-15T22:34:56.670Z,-77
2019-06-15T22:37:26.381Z,-78
2019-06-15T22:39:56.250Z,-79
2019-06-15T22:42:25.939Z,-78
2019-06-15T22:44:56.833Z,-78
2019-06-15T22:47:27.044Z,-78
2019-06-15T22:49:56.660Z,-78
2019-06-15T22:52:26.501Z,-78
2019-06-15T22:54:56.842Z,-78
2019-06-15T22:57:26.437Z,-78
2019-06-15T22:59:56.766Z,-78
2019-06-15T23:02:26.445Z,-78
2019-06-15T23:04:56.574Z,-78
2019-06-15T23:07:26.154Z,-78
2019-06-15T23:09:56.353Z,-78
2019-06-15T23:12:25.899Z,-77
2019-06-15T23:15:17.403Z,-78
2019-06-15T23:17:46.941Z,-77
2019-06-15T23:20:17.326Z,-78
2019-06-15T23:22:46.976Z,-77
2019-06-15T23:25:17.018Z,-77
2019-06-15T23:27:47.076Z,-77
2019-06-15T23:30:16.830Z,-77
2019-06-15T23:32:47.089Z,-77
2019-06-15T23:35:17.349Z,-76
2019-06-15T23:37:46.837Z,-77
2019-06-15T23:40:20.854Z,-77
2019-06-15T23:42:51.635Z,-77
2019-06-15T23:45:22.016Z,-77
2019-06-15T23:47:51.801Z,-77
2019-06-15T23:50:22.096Z,-77
2019-06-15T23:52:51.764Z,-77
2019-06-15T23:55:21.687Z,-77
2019-06-15T23:57:51.176Z,-77
